Time;durP1;ratioP1;P1;durP2;ratioP2;P2;SDS_P1;SDS_P2;PMS_P1;PMS_P2;Temp;Humidity;BMP_temperature;BMP_pressure;BME280_temperature;BME280_humidity;BME280_pressure;Samples;Min_cycle;Max_cycle;Signal;HPM_P1;HPM_P2
2021/05/03 00:02:19;;;;;;;8.10;3.77;;;6.30;87.70;;;;;;5094514;28;20058;-88
2021/05/03 00:04:45;;;;;;;8.97;3.73;;;6.20;87.70;;;;;;5094625;28;20023;-87
2021/05/03 00:07:11;;;;;;;6.80;3.87;;;6.20;87.80;;;;;;5112834;28;20100;-88
2021/05/03 00:09:36;;;;;;;8.53;3.97;;;6.20;87.90;;;;;;5112225;28;20028;-88
2021/05/03 00:12:02;;;;;;;9.10;3.97;;;6.30;87.40;;;;;;5112635;28;20055;-88
2021/05/03 00:14:28;;;;;;;10.33;4.00;;;6.20;87.80;;;;;;5094381;28;20066;-87
2021/05/03 00:16:54;;;;;;;8.80;4.13;;;6.00;88.20;;;;;;5094475;28;20062;-88
2021/05/03 00:19:20;;;;;;;8.97;4.30;;;5.90;88.80;;;;;;5093740;28;20032;-87
2021/05/03 00:21:46;;;;;;;8.90;4.07;;;5.90;89.60;;;;;;5112878;28;20034;-87
2021/05/03 00:24:12;;;;;;;9.03;4.10;;;5.80;89.60;;;;;;5112679;28;20032;-87
2021/05/03 00:26:38;;;;;;;10.07;4.37;;;5.80;89.90;;;;;;5094360;28;20476;-87
2021/05/03 00:29:03;;;;;;;9.07;4.10;;;5.90;89.40;;;;;;5093675;28;20030;-88
2021/05/03 00:31:29;;;;;;;9.33;4.23;;;5.80;89.50;;;;;;5094170;28;20032;-87
2021/05/03 00:33:55;;;;;;;9.00;3.90;;;5.80;90.20;;;;;;5112519;28;20032;-88
2021/05/03 00:36:20;;;;;;;7.83;4.33;;;5.90;90.00;;;;;;5094504;28;20038;-87
2021/05/03 00:38:46;;;;;;;10.37;4.47;;;5.90;90.00;;;;;;5112320;28;20513;-87
2021/05/03 00:41:12;;;;;;;9.70;4.10;;;5.80;90.00;;;;;;5093492;28;20027;-87
2021/05/03 00:43:37;;;;;;;12.03;4.43;;;5.70;90.20;;;;;;5094288;28;20020;-87
2021/05/03 00:46:03;;;;;;;9.70;4.33;;;5.80;90.10;;;;;;5094128;28;20084;-87
2021/05/03 00:48:29;;;;;;;12.03;3.90;;;5.80;90.00;;;;;;5112160;28;20039;-87
2021/05/03 00:50:55;;;;;;;9.27;4.70;;;5.70;89.90;;;;;;5111902;28;20023;-87
2021/05/03 00:53:20;;;;;;;10.63;4.23;;;5.60;89.90;;;;;;5093948;28;20028;-87
2021/05/03 00:55:46;;;;;;;9.67;4.30;;;5.70;90.00;;;;;;5094166;28;20034;-87
2021/05/03 00:58:13;;;;;;;12.30;4.73;;;5.50;90.10;;;;;;5096114;28;20114;-88
2021/05/03 01:00:39;;;;;;;11.37;4.70;;;5.50;90.10;;;;;;5097813;28;20571;-88
2021/05/03 01:03:06;;;;;;;8.30;4.23;;;5.30;90.40;;;;;;5097891;28;20019;-86
2021/05/03 01:05:32;;;;;;;9.10;4.80;;;5.20;90.60;;;;;;5097967;28;20030;-87
2021/05/03 01:07:59;;;;;;;12.03;5.03;;;5.30;90.90;;;;;;5097812;28;20110;-87
2021/05/03 01:10:26;;;;;;;9.13;5.27;;;5.30;90.60;;;;;;5115664;28;20024;-87
2021/05/03 01:12:53;;;;;;;9.97;4.23;;;5.30;90.80;;;;;;5116184;28;20027;-88
2021/05/03 01:15:23;;;;;;;13.20;5.30;;;5.30;91.10;;;;;;5116116;28;20049;-87
2021/05/03 01:17:57;;;;;;;9.97;4.50;;;5.30;90.70;;;;;;5097658;28;20503;-87
2021/05/03 01:20:28;;;;;;;9.83;4.77;;;5.30;90.90;;;;;;5101602;28;20399;-87
2021/05/03 01:22:57;;;;;;;8.60;4.13;;;5.30;90.80;;;;;;5102326;28;20024;-87
2021/05/03 01:25:31;;;;;;;11.60;4.60;;;5.30;90.70;;;;;;5120921;28;20483;-87
2021/05/03 01:28:04;;;;;;;11.93;4.70;;;5.30;90.80;;;;;;5109151;28;20492;-88
2021/05/03 01:30:35;;;;;;;11.00;4.73;;;5.30;90.70;;;;;;5097285;28;20440;-87
2021/05/03 01:33:03;;;;;;;9.73;4.40;;;5.40;90.70;;;;;;5097543;28;20059;-87
2021/05/03 01:35:28;;;;;;;9.73;4.30;;;5.40;90.60;;;;;;5115742;28;20032;-87
2021/05/03 01:37:56;;;;;;;10.13;4.30;;;5.30;90.70;;;;;;5115479;28;20113;-87
2021/05/03 01:40:24;;;;;;;9.57;4.43;;;5.40;90.60;;;;;;5115033;28;20425;-87
2021/05/03 01:42:49;;;;;;;8.30;4.47;;;5.30;90.90;;;;;;5115403;28;20020;-86
2021/05/03 01:45:25;;;;;;;11.83;4.57;;;5.20;91.30;;;;;;5097300;28;20020;-87
2021/05/03 01:47:52;;;;;;;9.80;4.60;;;5.20;91.10;;;;;;5115229;28;20027;-87
2021/05/03 01:50:19;;;;;;;11.07;4.93;;;5.20;91.00;;;;;;5097308;28;20080;-87
2021/05/03 01:52:46;;;;;;;15.30;4.83;;;5.20;91.00;;;;;;5097224;28;20361;-87
2021/05/03 01:55:13;;;;;;;10.10;4.37;;;5.10;91.30;;;;;;5097130;28;20479;-87
2021/05/03 01:57:39;;;;;;;11.40;5.23;;;5.20;91.20;;;;;;5097055;28;20110;-87
2021/05/03 02:00:06;;;;;;;8.83;4.47;;;5.20;91.50;;;;;;5096028;28;20114;-87
2021/05/03 02:02:32;;;;;;;8.73;4.47;;;5.30;91.10;;;;;;5096919;28;20016;-88
2021/05/03 02:04:57;;;;;;;10.00;4.80;;;5.30;91.10;;;;;;5097159;28;20026;-88
2021/05/03 02:07:23;;;;;;;11.47;4.80;;;5.20;91.10;;;;;;5097114;28;20523;-88
2021/05/03 02:09:49;;;;;;;11.40;4.73;;;5.20;91.40;;;;;;5095650;28;20080;-88
2021/05/03 02:12:15;;;;;;;8.43;4.10;;;5.20;91.20;;;;;;5096765;28;20499;-87
2021/05/03 02:14:41;;;;;;;9.23;4.70;;;5.20;90.90;;;;;;5115030;28;20023;-87
2021/05/03 02:17:08;;;;;;;10.13;4.93;;;5.10;91.30;;;;;;5096667;28;20028;-87
2021/05/03 02:19:34;;;;;;;11.87;5.13;;;5.10;91.20;;;;;;5114184;28;20106;-87
2021/05/03 02:22:00;;;;;;;10.57;4.60;;;5.10;91.30;;;;;;5096504;28;20153;-87
2021/05/03 02:24:26;;;;;;;8.77;4.33;;;5.10;91.10;;;;;;5096497;28;20115;-88
2021/05/03 02:26:51;;;;;;;13.70;4.93;;;5.00;91.40;;;;;;5114741;28;20489;-87
2021/05/03 02:29:17;;;;;;;8.73;4.57;;;5.00;91.00;;;;;;5095701;28;20391;-87
2021/05/03 02:31:43;;;;;;;11.97;5.00;;;4.90;91.30;;;;;;5096420;28;20106;-87
2021/05/03 02:34:08;;;;;;;9.17;4.23;;;4.90;91.30;;;;;;5096294;28;20384;-87
2021/05/03 02:36:34;;;;;;;9.90;5.03;;;4.90;91.30;;;;;;5096444;28;20116;-88
2021/05/03 02:38:59;;;;;;;11.77;5.13;;;4.80;91.50;;;;;;5113913;28;20022;-88
2021/05/03 02:41:25;;;;;;;10.20;4.47;;;4.70;91.60;;;;;;5096207;28;20430;-87
2021/05/03 02:43:51;;;;;;;8.73;4.57;;;4.80;91.50;;;;;;5096262;28;20031;-87
2021/05/03 02:46:16;;;;;;;10.80;4.40;;;4.90;91.40;;;;;;5114381;28;20061;-87
2021/05/03 02:48:42;;;;;;;11.37;4.30;;;4.90;91.50;;;;;;5095763;28;20030;-88
2021/05/03 02:51:08;;;;;;;9.53;4.20;;;5.00;91.40;;;;;;5095335;28;20020;-87
2021/05/03 02:53:33;;;;;;;10.60;4.77;;;4.90;91.50;;;;;;5095030;28;20361;-87
2021/05/03 02:55:59;;;;;;;10.20;4.87;;;5.00;91.50;;;;;;5094726;28;20023;-88
2021/05/03 02:58:25;;;;;;;12.90;4.27;;;5.00;91.50;;;;;;5095727;28;20427;-87
2021/05/03 03:00:51;;;;;;;8.77;4.17;;;4.90;91.50;;;;;;5095261;28;20587;-88
2021/05/03 03:03:16;;;;;;;8.73;4.57;;;4.90;91.40;;;;;;5096024;28;20384;-88
2021/05/03 03:05:42;;;;;;;13.87;4.43;;;4.90;91.50;;;;;;5095690;28;20073;-87
2021/05/03 03:08:07;;;;;;;9.70;4.30;;;4.90;91.30;;;;;;5095542;28;20023;-87
2021/05/03 03:10:33;;;;;;;10.27;4.90;;;4.90;91.40;;;;;;5095087;28;20020;-88
2021/05/03 03:13:01;;;;;;;9.17;4.50;;;4.90;91.30;;;;;;5095522;28;20024;-87
2021/05/03 03:15:30;;;;;;;8.50;4.50;;;4.90;91.40;;;;;;5095886;28;20388;-88
2021/05/03 03:17:56;;;;;;;6.32;4.22;;;4.80;91.50;;;;;;5095404;28;20023;-87
2021/05/03 03:20:23;;;;;;;9.00;4.43;;;4.80;91.60;;;;;;5112160;28;20028;-88
2021/05/03 03:22:49;;;;;;;10.13;4.70;;;4.70;91.50;;;;;;5113562;28;20019;-88
2021/05/03 03:25:16;;;;;;;7.67;4.67;;;4.70;91.70;;;;;;5095277;28;20027;-87
2021/05/03 03:27:41;;;;;;;8.17;4.70;;;4.70;91.80;;;;;;5113589;28;20024;-87
2021/05/03 03:30:10;;;;;;;8.17;4.90;;;4.70;91.70;;;;;;5094719;28;20024;-88
2021/05/03 03:32:44;;;;;;;7.63;4.27;;;4.60;91.80;;;;;;5095053;28;20062;-87
2021/05/03 03:35:17;;;;;;;7.03;4.40;;;4.60;91.90;;;;;;5095263;28;20027;-88
2021/05/03 03:37:44;;;;;;;11.03;4.90;;;4.70;91.70;;;;;;5095224;28;20529;-87
2021/05/03 03:40:11;;;;;;;10.23;4.57;;;4.60;91.70;;;;;;5112516;28;20475;-87
2021/05/03 03:42:37;;;;;;;10.80;4.57;;;4.70;91.60;;;;;;5094848;28;20020;-86
2021/05/03 03:45:04;;;;;;;9.00;4.40;;;4.70;91.50;;;;;;5113279;28;20038;-87
2021/05/03 03:47:30;;;;;;;13.67;4.53;;;4.70;91.60;;;;;;5113276;28;20031;-87
2021/05/03 03:49:56;;;;;;;8.17;4.73;;;4.60;91.70;;;;;;5094221;28;20194;-87
2021/05/03 03:52:23;;;;;;;9.60;4.80;;;4.70;91.90;;;;;;5094692;28;20492;-87
2021/05/03 03:54:49;;;;;;;7.00;4.60;;;4.80;91.90;;;;;;5094566;28;20023;-87
2021/05/03 03:57:14;;;;;;;10.20;4.73;;;4.80;91.60;;;;;;5094723;28;20472;-86
2021/05/03 03:59:43;;;;;;;7.50;4.60;;;4.90;91.40;;;;;;5094055;28;20235;-86
2021/05/03 04:02:08;;;;;;;11.17;4.87;;;4.90;91.50;;;;;;5113046;28;20016;-86
2021/05/03 04:04:36;;;;;;;9.23;5.13;;;4.90;91.50;;;;;;5094676;28;20035;-86
2021/05/03 04:09:50;;;;;;;8.00;4.87;;;4.90;91.50;;;;;;5112691;28;20107;-86
2021/05/03 04:25:51;;;;;;;8.50;4.40;;;4.80;91.90;;;;;;5079982;28;20027;-86
2021/05/03 04:28:19;;;;;;;12.97;5.07;;;4.80;91.90;;;;;;5112477;28;20088;-86
2021/05/03 04:31:13;;;;;;;8.05;4.82;;;4.80;92.00;;;;;;5093781;28;20112;-87
2021/05/03 04:33:55;;;;;;;10.27;5.30;;;4.80;92.20;;;;;;5101430;28;20027;-87
2021/05/03 04:37:14;;;;;;;9.53;5.53;;;4.80;92.40;;;;;;5083209;28;20093;-86
2021/05/03 04:43:45;;;;;;;7.87;4.53;;;4.80;92.20;;;;;;5118116;28;20030;-87
2021/05/03 04:47:01;;;;;;;10.60;5.13;;;4.80;92.40;;;;;;5089756;28;20023;-86
2021/05/03 04:50:26;;;;;;;9.30;4.57;;;4.80;92.40;;;;;;5025858;28;20554;-86
2021/05/03 04:56:28;;;;;;;9.33;5.37;;;4.90;92.30;;;;;;5079903;28;20510;-86
2021/05/03 04:58:54;;;;;;;12.13;6.10;;;4.90;92.20;;;;;;5119458;28;20063;-87
2021/05/03 05:01:20;;;;;;;12.37;6.10;;;4.90;92.30;;;;;;5101353;28;20115;-86
2021/05/03 05:03:45;;;;;;;13.30;6.67;;;4.90;92.30;;;;;;5121843;28;20023;-86
2021/05/03 05:06:11;;;;;;;9.10;5.83;;;5.00;92.30;;;;;;5120100;28;20051;-86
2021/05/03 05:08:36;;;;;;;13.23;7.10;;;5.00;92.30;;;;;;5101869;28;20118;-86
2021/05/03 05:11:02;;;;;;;9.17;6.23;;;5.10;92.20;;;;;;5101359;28;20080;-88
2021/05/03 05:13:29;;;;;;;12.07;7.33;;;5.20;92.30;;;;;;5101090;28;20118;-86
2021/05/03 05:16:00;;;;;;;11.60;6.87;;;5.40;92.10;;;;;;5085083;28;20031;-86
2021/05/03 05:18:30;;;;;;;12.77;6.77;;;5.60;91.80;;;;;;5116302;28;20027;-86
2021/05/03 05:21:06;;;;;;;11.82;7.30;;;5.60;91.90;;;;;;5118524;28;20035;-87
2021/05/03 05:23:49;;;;;;;11.73;6.40;;;5.70;91.90;;;;;;5119272;28;20047;-87
2021/05/03 05:26:15;;;;;;;12.87;6.37;;;5.90;91.90;;;;;;5084057;28;20035;-86
2021/05/03 05:28:41;;;;;;;10.40;6.60;;;6.00;91.90;;;;;;5101752;28;20040;-87
2021/05/03 05:31:10;;;;;;;12.33;6.80;;;6.10;91.70;;;;;;5101443;28;20019;-87
2021/05/03 05:34:00;;;;;;;9.82;5.93;;;6.20;91.60;;;;;;5102049;28;20157;-87
2021/05/03 05:36:26;;;;;;;10.63;6.43;;;6.20;91.50;;;;;;5098561;28;20081;-85
2021/05/03 05:38:51;;;;;;;10.97;6.63;;;6.20;91.40;;;;;;5100085;28;20024;-86
2021/05/03 05:41:19;;;;;;;9.77;6.20;;;6.30;91.30;;;;;;5100316;28;20020;-87
2021/05/03 05:43:45;;;;;;;11.40;6.83;;;6.30;91.30;;;;;;5097695;28;20073;-87
2021/05/03 05:46:11;;;;;;;11.37;6.43;;;6.40;91.20;;;;;;5097819;28;20026;-87
2021/05/03 05:48:36;;;;;;;10.63;6.57;;;6.40;91.00;;;;;;5097202;28;20019;-86
2021/05/03 05:51:05;;;;;;;13.30;6.00;;;6.50;90.80;;;;;;5096827;28;20055;-87
2021/05/03 05:53:32;;;;;;;13.05;6.20;;;6.50;90.70;;;;;;5115313;28;20114;-88
2021/05/03 05:55:59;;;;;;;10.37;5.80;;;6.50;90.70;;;;;;5116603;28;20555;-87
2021/05/03 05:58:24;;;;;;;10.50;6.27;;;6.50;91.00;;;;;;5096822;28;20434;-87
2021/05/03 06:00:50;;;;;;;10.90;5.73;;;6.60;90.60;;;;;;5114704;28;20024;-87
2021/05/03 06:03:16;;;;;;;11.47;5.87;;;6.70;90.60;;;;;;5096722;28;20024;-87
2021/05/03 06:05:42;;;;;;;10.77;5.90;;;6.70;90.40;;;;;;5096537;28;20043;-87
2021/05/03 06:08:08;;;;;;;15.13;6.10;;;6.80;90.30;;;;;;5115461;28;20058;-87
2021/05/03 06:10:33;;;;;;;12.63;5.77;;;6.80;90.50;;;;;;5097559;28;20119;-87
2021/05/03 06:12:59;;;;;;;12.77;6.80;;;6.90;90.30;;;;;;5096773;28;20106;-86
2021/05/03 06:15:25;;;;;;;11.17;6.23;;;7.00;90.20;;;;;;5115036;28;20073;-86
2021/05/03 06:17:50;;;;;;;11.13;5.93;;;7.00;90.20;;;;;;5114821;28;20023;-87
2021/05/03 06:20:16;;;;;;;14.67;5.70;;;7.00;90.30;;;;;;5096059;28;20119;-87
2021/05/03 06:22:41;;;;;;;15.30;6.33;;;7.10;90.10;;;;;;5096564;28;20467;-87
2021/05/03 06:25:08;;;;;;;9.90;5.87;;;7.20;90.00;;;;;;5096520;28;20469;-87
2021/05/03 06:27:34;;;;;;;12.80;6.00;;;7.20;90.00;;;;;;5114757;28;20012;-86
2021/05/03 06:30:00;;;;;;;12.00;5.73;;;7.30;89.40;;;;;;5097168;28;20031;-88
2021/05/03 06:32:26;;;;;;;11.07;5.90;;;7.30;89.40;;;;;;5115156;28;20097;-88
2021/05/03 06:34:52;;;;;;;14.03;6.13;;;7.30;89.40;;;;;;5096829;28;20027;-86
2021/05/03 06:37:18;;;;;;;10.53;6.47;;;7.30;89.00;;;;;;5096733;28;20492;-87
2021/05/03 06:39:44;;;;;;;14.67;6.53;;;7.30;89.70;;;;;;5095812;28;20030;-86
2021/05/03 06:42:09;;;;;;;11.33;6.03;;;7.40;89.10;;;;;;5096226;28;20019;-87
2021/05/03 06:44:35;;;;;;;15.43;6.03;;;7.40;89.10;;;;;;5096532;28;20020;-87
2021/05/03 06:47:02;;;;;;;11.30;6.70;;;7.40;89.70;;;;;;5114742;28;20020;-87
2021/05/03 06:49:28;;;;;;;9.53;6.30;;;7.50;88.80;;;;;;5095821;28;20135;-87
2021/05/03 06:51:54;;;;;;;11.20;5.80;;;7.40;88.60;;;;;;5096261;28;20488;-86
2021/05/03 06:54:20;;;;;;;13.70;6.63;;;7.40;89.60;;;;;;5095709;28;20476;-87
2021/05/03 06:56:46;;;;;;;10.60;6.20;;;7.50;88.90;;;;;;5095258;28;20019;-86
2021/05/03 06:59:11;;;;;;;15.67;6.43;;;7.50;88.90;;;;;;5095495;28;20084;-86
2021/05/03 07:01:37;;;;;;;13.33;6.40;;;7.50;89.00;;;;;;5096130;28;20015;-86
2021/05/03 07:04:03;;;;;;;10.73;5.80;;;7.50;88.20;;;;;;5096130;28;20028;-87
2021/05/03 07:06:28;;;;;;;10.63;5.63;;;7.60;88.20;;;;;;5095964;28;20622;-86
2021/05/03 07:08:54;;;;;;;10.30;5.73;;;7.70;88.00;;;;;;5095517;28;20058;-87
2021/05/03 07:11:22;;;;;;;10.13;5.60;;;7.70;87.80;;;;;;5096077;28;20048;-87
2021/05/03 07:13:48;;;;;;;12.83;6.93;;;7.70;87.20;;;;;;5114259;28;20027;-87
2021/05/03 07:16:13;;;;;;;11.37;5.77;;;7.70;87.60;;;;;;5114153;28;20024;-87
2021/05/03 07:18:39;;;;;;;11.70;6.10;;;7.80;86.90;;;;;;5095698;28;20032;-86
2021/05/03 07:21:06;;;;;;;9.43;6.10;;;7.70;86.50;;;;;;5096571;28;20051;-86
2021/05/03 07:23:32;;;;;;;12.47;5.73;;;7.80;86.50;;;;;;5117072;28;20435;-87
2021/05/03 07:25:59;;;;;;;9.63;5.33;;;7.90;85.80;;;;;;5100574;28;20043;-87
2021/05/03 07:28:25;;;;;;;14.23;5.80;;;8.00;85.30;;;;;;5099924;28;20054;-87
2021/05/03 07:30:57;;;;;;;10.40;5.83;;;8.00;85.00;;;;;;5096041;28;20435;-87
2021/05/03 07:33:23;;;;;;;10.07;5.50;;;8.10;84.90;;;;;;5095442;28;20023;-86
2021/05/03 07:35:49;;;;;;;10.70;5.73;;;8.10;84.30;;;;;;5095605;28;20396;-87
2021/05/03 07:38:14;;;;;;;9.03;4.93;;;8.20;83.10;;;;;;5095408;28;20034;-87
2021/05/03 07:40:40;;;;;;;8.13;5.03;;;8.20;83.50;;;;;;5113992;28;20437;-87
2021/05/03 07:43:05;;;;;;;9.27;5.93;;;8.20;83.30;;;;;;5113847;28;20531;-87
2021/05/03 07:45:31;;;;;;;10.00;6.00;;;8.30;83.60;;;;;;5113575;28;20030;-86
2021/05/03 07:47:57;;;;;;;10.20;5.83;;;8.30;83.40;;;;;;5113276;28;20024;-87
2021/05/03 07:50:22;;;;;;;10.13;5.30;;;8.40;83.10;;;;;;5095224;28;20024;-87
2021/05/03 07:52:48;;;;;;;12.40;5.70;;;8.40;83.70;;;;;;5113251;28;20104;-88
2021/05/03 07:55:14;;;;;;;8.57;5.07;;;8.50;81.70;;;;;;5094838;28;20038;-88
2021/05/03 07:57:39;;;;;;;12.17;5.60;;;8.50;80.70;;;;;;5112892;28;20101;-88
2021/05/03 08:00:06;;;;;;;14.63;7.03;;;8.60;80.00;;;;;;5112457;28;20063;-87
2021/05/03 08:02:32;;;;;;;13.37;6.43;;;8.60;78.30;;;;;;5094673;28;20111;-87
2021/05/03 08:04:58;;;;;;;12.07;5.90;;;8.60;78.60;;;;;;5112927;28;21006;-88
2021/05/03 08:07:24;;;;;;;8.77;5.30;;;8.70;78.20;;;;;;5094512;28;20027;-86
2021/05/03 08:09:49;;;;;;;10.73;4.87;;;8.80;77.90;;;;;;5094177;28;20024;-87
2021/05/03 08:12:15;;;;;;;9.37;5.00;;;8.80;78.20;;;;;;5112689;28;20023;-87
2021/05/03 08:14:41;;;;;;;12.33;5.90;;;8.90;76.90;;;;;;5113004;28;20035;-86
2021/05/03 08:17:11;;;;;;;14.03;6.97;;;9.00;77.10;;;;;;5112693;28;20028;-87
2021/05/03 08:19:36;;;;;;;;;;;9.00;76.10;;;;;;5094681;28;20384;-86
2021/05/03 08:22:03;;;;;;;14.63;5.70;;;9.00;73.70;;;;;;5094522;28;19956;-87
2021/05/03 08:24:30;;;;;;;11.70;5.33;;;9.10;74.60;;;;;;5112678;28;20023;-87
2021/05/03 08:26:58;;;;;;;8.90;4.60;;;9.10;74.20;;;;;;5094702;28;20097;-86
2021/05/03 08:29:24;;;;;;;9.63;4.60;;;9.20;73.90;;;;;;5112644;28;20027;-87
2021/05/03 08:31:49;;;;;;;8.47;5.33;;;9.20;73.30;;;;;;5094331;28;20369;-86
2021/05/03 08:34:16;;;;;;;9.77;4.93;;;9.30;72.60;;;;;;5112622;28;20016;-86
2021/05/03 08:36:42;;;;;;;19.53;5.43;;;9.30;72.30;;;;;;5094487;28;20028;-87
2021/05/03 08:39:07;;;;;;;8.47;4.67;;;9.40;71.90;;;;;;5112509;28;20496;-87
2021/05/03 08:41:34;;;;;;;7.87;4.10;;;9.40;72.10;;;;;;5094543;28;20101;-86
2021/05/03 08:44:00;;;;;;;10.53;4.70;;;9.40;73.00;;;;;;5094373;28;20057;-87
2021/05/03 08:46:31;;;;;;;9.27;4.17;;;9.50;72.60;;;;;;5094030;28;20104;-87
2021/05/03 08:49:05;;;;;;;8.40;4.93;;;9.60;72.50;;;;;;5112164;28;20085;-87
2021/05/03 08:54:04;;;;;;;12.13;5.70;;;9.70;71.50;;;;;;5112645;28;20025;-86
2021/05/03 08:56:30;;;;;;;10.53;4.90;;;9.70;71.30;;;;;;5094263;28;20137;-87
2021/05/03 08:58:57;;;;;;;8.90;5.13;;;9.80;71.00;;;;;;5093478;28;20063;-87
2021/05/03 09:01:23;;;;;;;10.80;5.23;;;9.80;71.20;;;;;;5112505;28;20034;-86
2021/05/03 09:03:52;;;;;;;13.70;5.60;;;9.90;69.80;;;;;;5112035;28;20027;-86
2021/05/03 09:06:18;;;;;;;14.00;4.85;;;9.90;69.10;;;;;;5094075;28;20054;-86
2021/05/03 09:08:44;;;;;;;7.73;5.00;;;9.90;69.20;;;;;;5094004;28;20020;-86
2021/05/03 09:11:15;;;;;;;11.47;5.50;;;10.00;69.20;;;;;;5110489;28;20530;-87
2021/05/03 09:13:41;;;;;;;11.00;5.50;;;10.10;67.40;;;;;;5093941;28;20024;-87
2021/05/03 09:16:22;;;;;;;10.37;4.97;;;10.10;66.10;;;;;;5112336;28;20098;-87
2021/05/03 09:18:48;;;;;;;11.40;5.00;;;10.10;65.50;;;;;;5095333;28;20479;-87
2021/05/03 09:21:20;;;;;;;11.73;5.20;;;10.20;65.70;;;;;;5097382;28;20028;-86
2021/05/03 09:24:24;;;;;;;9.70;5.63;;;10.20;66.00;;;;;;5099174;28;20368;-86
2021/05/03 09:27:05;;;;;;;13.43;5.57;;;10.20;66.00;;;;;;5057832;28;20514;-86
2021/05/03 09:29:44;;;;;;;8.23;4.90;;;10.30;66.00;;;;;;5115213;28;20038;-86
2021/05/03 09:32:10;;;;;;;10.00;4.75;;;10.40;65.30;;;;;;5115830;28;20023;-86
2021/05/03 09:34:40;;;;;;;9.50;5.07;;;10.50;64.70;;;;;;5097392;28;20123;-86
2021/05/03 09:37:19;;;;;;;11.70;6.60;;;10.50;65.00;;;;;;5097328;28;20027;-86
2021/05/03 09:39:56;;;;;;;11.57;6.83;;;10.60;64.80;;;;;;5115792;28;20026;-86
2021/05/03 09:42:22;;;;;;;11.27;5.77;;;10.70;65.00;;;;;;5115886;28;20034;-86
2021/05/03 09:45:09;;;;;;;9.13;5.53;;;10.70;64.50;;;;;;5097414;28;20026;-86
2021/05/03 09:47:36;;;;;;;9.47;5.87;;;10.70;63.10;;;;;;5097099;28;20022;-87
2021/05/03 09:50:09;;;;;;;8.27;5.23;;;10.70;62.70;;;;;;5096827;28;20023;-86
2021/05/03 09:52:34;;;;;;;9.93;4.97;;;10.70;63.60;;;;;;5115456;28;20387;-87
2021/05/03 09:55:00;;;;;;;10.67;5.63;;;10.80;64.40;;;;;;5097365;28;20023;-86
2021/05/03 09:57:26;;;;;;;8.37;5.20;;;10.80;62.90;;;;;;5096876;28;20069;-86
2021/05/03 09:59:54;;;;;;;7.10;4.80;;;10.80;63.30;;;;;;5114705;28;20099;-86
2021/05/03 10:02:26;;;;;;;11.13;5.55;;;10.80;62.50;;;;;;5115185;28;20077;-86
2021/05/03 10:05:08;;;;;;;10.13;5.40;;;11.00;61.20;;;;;;5096878;28;20031;-87
2021/05/03 10:07:37;;;;;;;8.10;4.90;;;10.90;61.10;;;;;;5097203;28;20452;-86
2021/05/03 10:10:09;;;;;;;9.83;5.40;;;10.90;60.60;;;;;;5114669;28;20103;-86
2021/05/03 10:12:35;;;;;;;9.57;5.23;;;10.90;60.60;;;;;;5115033;28;20429;-86
2021/05/03 10:15:06;;;;;;;8.03;5.37;;;11.10;60.20;;;;;;5115012;28;20062;-87
2021/05/03 10:17:33;;;;;;;13.43;5.90;;;11.10;60.70;;;;;;5115185;28;20073;-87
2021/05/03 10:20:00;;;;;;;9.27;5.80;;;11.20;60.80;;;;;;5096291;28;20036;-87
2021/05/03 10:22:29;;;;;;;9.13;5.47;;;11.20;59.70;;;;;;5096716;28;20478;-87
2021/05/03 10:24:58;;;;;;;8.98;5.40;;;11.20;60.60;;;;;;5114885;28;20012;-86
2021/05/03 10:27:25;;;;;;;14.27;5.75;;;11.20;60.90;;;;;;5096638;28;20284;-86
2021/05/03 10:30:09;;;;;;;11.50;5.73;;;11.10;60.90;;;;;;5095673;28;20032;-86
2021/05/03 10:32:36;;;;;;;9.23;5.63;;;11.20;60.80;;;;;;5115117;28;20391;-87
2021/05/03 10:35:04;;;;;;;12.30;6.53;;;11.20;59.80;;;;;;5097323;28;20066;-88
2021/05/03 10:37:29;;;;;;;11.40;5.90;;;11.20;60.10;;;;;;5114897;28;20027;-88
2021/05/03 10:39:56;;;;;;;9.90;6.07;;;11.30;59.00;;;;;;5095976;28;20403;-86
2021/05/03 10:42:22;;;;;;;8.23;5.10;;;11.40;58.10;;;;;;5114507;28;20145;-86
2021/05/03 10:45:26;;;;;;;10.43;5.33;;;11.40;58.20;;;;;;5114711;28;20465;-84
2021/05/03 10:47:55;;;;;;;10.33;5.93;;;11.50;58.40;;;;;;5096154;28;20028;-86
2021/05/03 10:50:40;;;;;;;10.93;5.80;;;11.50;57.50;;;;;;5095815;28;20028;-86
2021/05/03 10:56:05;;;;;;;9.20;5.90;;;11.50;58.60;;;;;;5114331;28;20028;-86
2021/05/03 10:58:32;;;;;;;;;;;11.70;57.50;;;;;;5096059;28;20035;-85
2021/05/03 11:01:03;;;;;;;9.10;6.40;;;11.60;57.30;;;;;;5095870;28;19911;-86
2021/05/03 11:03:58;;;;;;;12.20;6.00;;;11.50;57.30;;;;;;5095996;28;20016;-86
2021/05/03 11:06:36;;;;;;;10.67;6.07;;;11.60;57.60;;;;;;5085848;28;20043;-86
2021/05/03 11:09:30;;;;;;;8.57;5.47;;;11.50;57.50;;;;;;5095375;28;20032;-86
2021/05/03 11:12:02;;;;;;;8.17;5.10;;;11.50;57.60;;;;;;5095463;28;20085;-86
2021/05/03 11:14:31;;;;;;;11.80;5.87;;;11.50;57.60;;;;;;5113784;28;20023;-86
2021/05/03 11:17:03;;;;;;;8.02;5.93;;;11.50;57.00;;;;;;5113791;28;20020;-86
2021/05/03 11:22:07;;;;;;;8.73;5.00;;;11.50;57.60;;;;;;5114104;28;20023;-86
2021/05/03 11:24:44;;;;;;;10.07;5.53;;;11.50;58.20;;;;;;5095185;28;20102;-86
2021/05/03 11:27:20;;;;;;;9.90;5.50;;;11.60;57.60;;;;;;5095223;28;20022;-86
2021/05/03 11:32:35;;;;;;;10.07;5.57;;;11.70;56.40;;;;;;5113427;28;20157;-86
2021/05/03 11:35:09;;;;;;;11.17;6.30;;;11.70;56.20;;;;;;5113308;28;20024;-86
2021/05/03 11:37:45;;;;;;;8.50;5.40;;;11.70;56.50;;;;;;5094999;28;20024;-86
2021/05/03 11:45:29;;;;;;;11.77;6.27;;;11.70;57.90;;;;;;5113373;28;20361;-86
2021/05/03 11:47:56;;;;;;;8.50;5.90;;;11.80;57.10;;;;;;5094644;28;20116;-86
2021/05/03 11:50:24;;;;;;;6.70;4.83;;;11.80;57.30;;;;;;5112908;28;20031;-87
2021/05/03 11:52:50;;;;;;;8.60;5.47;;;11.80;57.90;;;;;;5112910;28;20411;-87
2021/05/03 11:55:19;;;;;;;8.53;5.80;;;11.80;56.50;;;;;;5094600;28;20053;-87
2021/05/03 11:57:48;;;;;;;7.90;5.63;;;11.90;56.40;;;;;;5094865;28;20392;-87
2021/05/03 12:00:19;;;;;;;8.20;5.72;;;12.00;55.10;;;;;;5112735;28;20024;-87
2021/05/03 12:03:03;;;;;;;7.03;5.23;;;12.00;55.40;;;;;;5095772;28;20023;-86
2021/05/03 12:05:36;;;;;;;9.00;6.33;;;11.90;57.30;;;;;;5097320;28;20020;-87
2021/05/03 12:08:12;;;;;;;11.87;6.00;;;11.90;57.80;;;;;;5078690;28;20388;-87
2021/05/03 12:10:38;;;;;;;11.03;7.23;;;11.90;56.90;;;;;;5093814;28;20263;-87
2021/05/03 12:13:03;;;;;;;9.53;6.37;;;11.80;59.70;;;;;;5095087;28;20422;-87
2021/05/03 12:15:30;;;;;;;11.13;6.73;;;11.70;59.80;;;;;;5112513;28;20027;-87
2021/05/03 12:18:02;;;;;;;11.60;6.70;;;11.70;63.10;;;;;;5094622;28;20035;-87
2021/05/03 12:20:30;;;;;;;11.23;6.67;;;11.60;65.30;;;;;;5093857;28;20397;-87
2021/05/03 12:23:03;;;;;;;8.50;6.50;;;11.60;65.20;;;;;;5111031;28;20479;-86
2021/05/03 12:25:40;;;;;;;9.27;5.10;;;11.60;64.30;;;;;;5116703;28;20430;-87
2021/05/03 12:28:11;;;;;;;11.17;6.73;;;11.60;64.20;;;;;;5098053;28;20476;-87
2021/05/03 12:30:39;;;;;;;9.63;6.50;;;11.70;63.90;;;;;;5096948;28;20031;-87
2021/05/03 12:33:15;;;;;;;8.90;6.53;;;11.70;61.60;;;;;;5095819;28;20080;-86
2021/05/03 12:35:41;;;;;;;11.80;6.67;;;11.80;59.60;;;;;;5112769;28;20073;-87
2021/05/03 12:38:24;;;;;;;9.83;6.40;;;11.90;58.80;;;;;;5094728;28;20032;-87
2021/05/03 12:40:50;;;;;;;10.57;5.87;;;11.90;58.90;;;;;;5094649;28;20031;-87
2021/05/03 12:43:20;;;;;;;11.13;5.60;;;11.90;59.00;;;;;;5094704;28;20122;-87
2021/05/03 12:53:45;;;;;;;8.33;5.53;;;12.20;53.80;;;;;;5115848;28;20572;-87
2021/05/03 12:56:36;;;;;;;12.67;5.97;;;12.20;53.20;;;;;;5099026;28;20039;-87
2021/05/03 13:07:19;;;;;;;8.87;5.67;;;12.40;54.20;;;;;;5117106;28;20055;-87
2021/05/03 13:29:13;;;;;;;9.60;5.70;;;12.50;53.60;;;;;;5119671;28;20081;-87
2021/05/03 13:31:40;;;;;;;9.00;5.60;;;12.60;53.70;;;;;;5101645;28;20043;-87
2021/05/03 13:34:08;;;;;;;10.20;6.10;;;12.50;53.90;;;;;;5117435;28;20024;-87
2021/05/03 13:36:35;;;;;;;10.93;6.20;;;12.60;54.10;;;;;;5098534;28;20468;-87
2021/05/03 13:39:01;;;;;;;9.60;6.10;;;12.50;53.80;;;;;;5098085;28;20027;-87
2021/05/03 13:41:27;;;;;;;7.30;5.17;;;12.60;53.60;;;;;;5098258;28;20437;-87
2021/05/03 13:43:53;;;;;;;10.20;5.50;;;12.60;53.10;;;;;;5116296;28;20019;-87
2021/05/03 13:46:19;;;;;;;12.10;5.30;;;12.50;52.90;;;;;;5097962;28;20031;-87
2021/05/03 13:48:46;;;;;;;10.33;5.27;;;12.50;52.60;;;;;;5118749;22;20125;-84
2021/05/03 13:51:12;;;;;;;7.43;4.60;;;12.60;52.30;;;;;;5096923;28;20039;-83
2021/05/03 13:53:39;;;;;;;9.10;4.80;;;12.60;52.40;;;;;;5097764;28;20027;-84
2021/05/03 13:56:05;;;;;;;8.30;4.80;;;12.70;52.20;;;;;;5097652;28;20084;-84
2021/05/03 13:58:31;;;;;;;6.80;4.37;;;12.80;51.80;;;;;;5097123;28;20026;-84
2021/05/03 14:00:58;;;;;;;9.77;4.80;;;12.70;52.10;;;;;;5097217;28;20118;-85
2021/05/03 14:03:23;;;;;;;6.87;4.40;;;12.80;51.70;;;;;;5097473;28;20102;-84
2021/05/03 14:05:49;;;;;;;9.73;4.30;;;12.80;51.20;;;;;;5096604;28;20058;-83
2021/05/03 14:08:15;;;;;;;10.53;4.33;;;12.80;50.40;;;;;;5115729;28;20095;-84
2021/05/03 14:10:41;;;;;;;8.47;4.03;;;12.80;50.50;;;;;;5097120;28;20019;-85
2021/05/03 14:13:07;;;;;;;7.33;4.13;;;12.80;50.10;;;;;;5097539;28;20087;-84